Time;durP1;ratioP1;P1;durP2;ratioP2;P2;SDS_P1;SDS_P2;PMS_P1;PMS_P2;Temp;Humidity;BMP_temperature;BMP_pressure;BME280_temperature;BME280_humidity;BME280_pressure;Samples;Min_cycle;Max_cycle;Signal;HPM_P1;HPM_P2
2022/12/18 00:00:46;;;;;;;17.15;14.35;;;6.00;99.90;;;;;;4975828;28;20034;-80
2022/12/18 00:03:13;;;;;;;18.15;14.40;;;6.00;99.90;;;;;;4974686;28;20023;-80
2022/12/18 00:05:49;;;;;;;21.58;15.57;;;6.00;99.90;;;;;;4975911;28;20034;-80
2022/12/18 00:08:15;;;;;;;20.02;14.77;;;6.10;99.90;;;;;;4974452;28;20544;-80
2022/12/18 00:10:41;;;;;;;19.50;14.95;;;6.00;99.90;;;;;;4975798;28;20030;-80
2022/12/18 00:13:07;;;;;;;18.13;13.82;;;6.10;99.90;;;;;;4975711;28;20118;-80
2022/12/18 00:15:36;;;;;;;16.52;14.25;;;6.10;99.90;;;;;;4975910;28;20037;-80
2022/12/18 00:18:02;;;;;;;18.70;14.25;;;6.10;99.90;;;;;;4967353;28;20077;-80
2022/12/18 00:20:28;;;;;;;20.70;15.00;;;6.10;99.90;;;;;;4974664;28;20031;-81
2022/12/18 00:22:54;;;;;;;18.55;15.23;;;6.10;99.90;;;;;;4975774;28;20089;-80
2022/12/18 00:25:20;;;;;;;19.27;15.82;;;6.10;99.90;;;;;;4958954;28;20033;-80
2022/12/18 00:27:46;;;;;;;24.92;16.40;;;6.10;99.90;;;;;;4955692;28;20023;-80
2022/12/18 00:30:12;;;;;;;20.10;15.02;;;6.10;99.90;;;;;;4974308;28;20038;-80
2022/12/18 00:32:37;;;;;;;19.05;15.23;;;6.10;99.90;;;;;;4975490;28;20109;-80
2022/12/18 00:35:04;;;;;;;19.08;15.90;;;6.10;99.90;;;;;;4974156;28;20141;-81
2022/12/18 00:37:30;;;;;;;18.10;15.18;;;6.10;99.90;;;;;;4975382;28;20071;-81
2022/12/18 00:39:56;;;;;;;18.00;15.02;;;6.10;99.90;;;;;;4975434;28;20041;-80
2022/12/18 00:45:06;;;;;;;18.00;15.45;;;6.10;99.90;;;;;;4961792;28;20034;-81
2022/12/18 00:47:32;;;;;;;19.58;14.88;;;6.10;99.90;;;;;;4954664;29;20027;-81
2022/12/18 00:49:57;;;;;;;18.92;15.68;;;6.10;99.90;;;;;;4961045;28;20077;-80
2022/12/18 00:52:23;;;;;;;20.02;16.25;;;6.10;99.90;;;;;;4962462;28;20034;-81
2022/12/18 00:54:49;;;;;;;20.55;15.73;;;6.20;99.90;;;;;;4955922;29;20503;-80
2022/12/18 00:57:14;;;;;;;20.00;16.25;;;6.20;99.90;;;;;;4955603;29;20066;-80
2022/12/18 00:59:40;;;;;;;22.85;17.02;;;6.20;99.90;;;;;;4954390;29;20027;-81
2022/12/18 01:02:06;;;;;;;17.92;14.60;;;6.20;99.90;;;;;;4963634;28;20023;-81
2022/12/18 01:04:32;;;;;;;19.73;16.27;;;6.20;99.90;;;;;;4974875;28;20026;-80
2022/12/18 01:06:58;;;;;;;28.25;18.13;;;6.20;99.90;;;;;;4973119;28;20548;-81
2022/12/18 01:09:24;;;;;;;24.85;16.77;;;6.20;99.90;;;;;;4970186;28;20119;-80
2022/12/18 01:11:50;;;;;;;19.38;15.52;;;6.20;99.90;;;;;;4954316;29;20031;-81
2022/12/18 01:14:15;;;;;;;19.88;15.15;;;6.30;99.90;;;;;;4973556;28;20433;-81
2022/12/18 01:16:41;;;;;;;18.10;15.30;;;6.20;99.90;;;;;;4972644;28;20026;-81
2022/12/18 01:19:07;;;;;;;19.23;15.00;;;6.30;99.90;;;;;;4970726;28;20041;-81
2022/12/18 01:21:33;;;;;;;19.27;14.85;;;6.20;99.90;;;;;;4954190;29;20074;-80
2022/12/18 01:23:59;;;;;;;21.50;15.70;;;6.30;99.90;;;;;;4962644;28;20101;-81
2022/12/18 01:26:27;;;;;;;17.77;14.90;;;6.30;99.90;;;;;;4974091;28;20481;-81
2022/12/18 01:28:54;;;;;;;18.00;14.40;;;6.30;99.90;;;;;;4974559;28;20170;-80
2022/12/18 01:31:29;;;;;;;17.90;15.20;;;6.30;99.90;;;;;;4974261;28;20027;-81
2022/12/18 01:33:56;;;;;;;16.55;13.95;;;6.30;99.90;;;;;;4974221;28;20041;-81
2022/12/18 01:36:39;;;;;;;17.45;14.32;;;6.30;99.90;;;;;;4970207;28;20030;-81
2022/12/18 01:39:07;;;;;;;19.20;15.25;;;6.30;99.90;;;;;;4961649;28;20031;-80
2022/12/18 01:44:47;;;;;;;16.73;14.88;;;6.40;99.90;;;;;;4962668;28;20096;-80
2022/12/18 01:47:26;;;;;;;16.90;14.40;;;6.40;99.90;;;;;;4968296;28;20043;-81
2022/12/18 01:49:53;;;;;;;21.92;16.85;;;6.40;99.90;;;;;;4966178;28;20046;-81
2022/12/18 01:52:21;;;;;;;19.63;15.95;;;6.40;99.90;;;;;;4969424;28;20030;-82
2022/12/18 01:54:48;;;;;;;17.25;15.10;;;6.40;99.90;;;;;;4954833;29;20039;-81
2022/12/18 01:57:14;;;;;;;17.77;14.90;;;6.30;99.90;;;;;;4969690;28;20081;-81
2022/12/18 01:59:45;;;;;;;19.02;16.10;;;6.30;99.90;;;;;;4972913;28;20100;-81
2022/12/18 02:02:11;;;;;;;18.88;16.60;;;6.30;99.90;;;;;;4974250;28;20023;-81
2022/12/18 02:04:37;;;;;;;19.10;16.30;;;6.40;99.90;;;;;;4969977;28;20082;-81
2022/12/18 02:07:38;;;;;;;18.45;15.73;;;6.30;99.90;;;;;;4972577;28;20481;-80
2022/12/18 02:10:19;;;;;;;21.60;16.63;;;6.30;99.90;;;;;;4879782;29;20033;-81
2022/12/18 02:12:52;;;;;;;19.08;15.98;;;6.30;99.90;;;;;;4945710;29;20090;-81
2022/12/18 02:15:34;;;;;;;19.08;16.38;;;6.30;99.90;;;;;;4954560;28;20512;-80
2022/12/18 02:18:19;;;;;;;20.90;16.00;;;6.30;99.90;;;;;;4957436;28;20110;-80
2022/12/18 02:21:04;;;;;;;19.13;16.17;;;6.30;99.90;;;;;;4961136;28;20617;-81
2022/12/18 02:23:45;;;;;;;20.58;16.98;;;6.30;99.90;;;;;;4977989;28;20011;-80
2022/12/18 02:26:21;;;;;;;18.23;15.50;;;6.30;99.90;;;;;;4976493;28;20082;-80
2022/12/18 02:29:01;;;;;;;19.63;15.80;;;6.30;99.90;;;;;;4957258;29;20035;-81
2022/12/18 02:31:35;;;;;;;18.13;15.18;;;6.30;99.90;;;;;;4957279;29;20078;-81
2022/12/18 02:34:04;;;;;;;24.52;17.25;;;6.30;99.90;;;;;;4957115;29;20086;-81
2022/12/18 02:36:32;;;;;;;21.05;16.30;;;6.30;99.90;;;;;;4968907;28;20027;-80
2022/12/18 02:39:00;;;;;;;20.05;16.08;;;6.30;99.90;;;;;;4977628;28;20023;-81
2022/12/18 02:41:27;;;;;;;20.60;16.13;;;6.30;99.90;;;;;;4975972;28;20037;-81
2022/12/18 02:43:57;;;;;;;18.83;15.23;;;6.30;99.90;;;;;;4958285;29;20478;-81
2022/12/18 02:46:44;;;;;;;18.38;15.43;;;6.30;99.90;;;;;;4958237;29;20039;-81
2022/12/18 02:49:29;;;;;;;18.73;15.82;;;6.30;99.90;;;;;;4958086;28;20694;-80
2022/12/18 02:52:28;;;;;;;19.10;15.48;;;6.30;99.90;;;;;;4958146;28;20070;-81
2022/12/18 02:55:07;;;;;;;18.92;15.90;;;6.40;99.90;;;;;;4957948;29;20082;-80
2022/12/18 02:57:44;;;;;;;17.98;15.07;;;6.30;99.90;;;;;;4974095;28;20147;-80
2022/12/18 03:00:19;;;;;;;17.55;14.90;;;6.30;99.90;;;;;;4977320;28;20038;-80
2022/12/18 03:02:59;;;;;;;20.77;14.77;;;6.40;99.90;;;;;;4975972;28;20026;-80
2022/12/18 03:05:36;;;;;;;18.33;15.00;;;6.40;99.90;;;;;;4977045;28;20122;-81
2022/12/18 03:08:17;;;;;;;17.10;14.32;;;6.40;99.90;;;;;;4975828;28;20506;-81
2022/12/18 03:10:53;;;;;;;18.07;14.13;;;6.40;99.90;;;;;;4975970;28;20074;-80
2022/12/18 03:13:27;;;;;;;17.40;13.57;;;6.40;99.90;;;;;;4975775;28;20031;-81
2022/12/18 03:15:56;;;;;;;16.67;13.88;;;6.40;99.90;;;;;;4975584;28;20037;-81
2022/12/18 03:18:34;;;;;;;17.83;14.60;;;6.30;99.90;;;;;;4976809;28;20049;-81
2022/12/18 03:21:05;;;;;;;15.23;13.63;;;6.30;99.90;;;;;;4976920;28;20596;-81
2022/12/18 03:23:39;;;;;;;14.95;12.88;;;6.30;99.90;;;;;;4976891;28;20437;-81
2022/12/18 03:26:09;;;;;;;16.73;13.77;;;6.30;99.90;;;;;;4975421;28;20433;-80
2022/12/18 03:28:39;;;;;;;14.43;12.93;;;6.40;99.90;;;;;;4974849;28;20062;-81
2022/12/18 03:31:08;;;;;;;15.65;13.13;;;6.40;99.90;;;;;;4964831;28;20024;-81
2022/12/18 03:33:55;;;;;;;17.67;13.00;;;6.40;99.90;;;;;;4956105;29;20083;-80
2022/12/18 03:36:22;;;;;;;13.35;11.95;;;6.40;99.90;;;;;;4960128;28;20473;-81
2022/12/18 03:38:48;;;;;;;14.13;12.35;;;6.30;99.90;;;;;;4975184;28;20058;-81
2022/12/18 03:41:33;;;;;;;14.45;11.88;;;6.40;99.90;;;;;;4976527;28;20065;-81
2022/12/18 03:44:11;;;;;;;13.38;10.40;;;6.30;99.90;;;;;;4963661;28;20102;-80
2022/12/18 03:46:48;;;;;;;12.25;10.93;;;6.30;99.90;;;;;;4957023;29;20039;-81
2022/12/18 03:49:37;;;;;;;12.52;11.23;;;6.30;99.90;;;;;;4955862;29;20042;-81
2022/12/18 03:52:20;;;;;;;12.93;11.23;;;6.30;99.90;;;;;;4955067;29;20035;-81
2022/12/18 03:54:47;;;;;;;13.13;11.75;;;6.30;99.90;;;;;;4955766;29;20031;-80
2022/12/18 03:57:22;;;;;;;11.20;10.05;;;6.30;99.90;;;;;;4955536;29;20062;-81
2022/12/18 03:59:51;;;;;;;12.82;11.07;;;6.30;99.90;;;;;;4956843;29;20031;-81
2022/12/18 04:02:17;;;;;;;11.85;10.00;;;6.30;99.90;;;;;;4966534;28;20071;-80
2022/12/18 04:04:44;;;;;;;10.38;9.27;;;6.30;99.90;;;;;;4976110;28;20026;-81
2022/12/18 04:07:11;;;;;;;9.23;8.27;;;6.30;99.90;;;;;;4958635;28;20426;-80
2022/12/18 04:09:39;;;;;;;9.00;8.07;;;6.30;99.90;;;;;;4972759;28;20118;-81
2022/12/18 04:12:04;;;;;;;8.48;7.55;;;6.30;99.90;;;;;;4975920;28;20035;-81
2022/12/18 04:14:35;;;;;;;8.57;7.78;;;6.30;99.90;;;;;;4975878;28;20061;-81
2022/12/18 04:17:02;;;;;;;8.27;7.47;;;6.30;99.90;;;;;;4970210;28;20082;-81
2022/12/18 04:19:28;;;;;;;8.20;7.50;;;6.40;99.90;;;;;;4955314;29;20035;-81
2022/12/18 04:21:54;;;;;;;9.00;8.10;;;6.40;99.90;;;;;;4955342;29;20030;-81
2022/12/18 04:24:19;;;;;;;9.35;8.32;;;6.30;99.90;;;;;;4955082;29;20027;-81
2022/12/18 04:26:45;;;;;;;8.85;7.93;;;6.40;99.90;;;;;;4967382;28;20030;-81
2022/12/18 04:29:11;;;;;;;9.52;8.52;;;6.30;99.90;;;;;;4975795;28;20098;-81
2022/12/18 04:31:37;;;;;;;8.25;7.55;;;6.30;99.90;;;;;;4975587;28;20076;-81
2022/12/18 04:34:03;;;;;;;8.65;7.78;;;6.30;99.90;;;;;;4963558;28;20065;-81
2022/12/18 04:36:29;;;;;;;8.35;7.57;;;6.30;99.90;;;;;;4974190;28;20517;-82
2022/12/18 04:38:55;;;;;;;9.05;8.15;;;6.30;99.90;;;;;;4975456;28;20105;-81
2022/12/18 04:41:21;;;;;;;8.35;7.55;;;6.20;99.90;;;;;;4955198;28;20035;-81
2022/12/18 04:43:46;;;;;;;9.23;7.68;;;6.20;99.90;;;;;;4962391;28;20027;-81
2022/12/18 04:46:12;;;;;;;8.93;8.13;;;6.20;99.90;;;;;;4965748;28;20015;-81
2022/12/18 04:48:38;;;;;;;7.72;7.03;;;6.20;99.90;;;;;;4965511;28;20034;-81
2022/12/18 04:51:05;;;;;;;7.22;6.55;;;6.20;99.90;;;;;;4969391;28;20042;-81
2022/12/18 04:53:30;;;;;;;8.43;7.30;;;6.20;99.90;;;;;;4955505;29;20055;-81
2022/12/18 04:56:22;;;;;;;7.03;6.32;;;6.20;99.90;;;;;;4959022;28;20129;-82
2022/12/18 04:58:48;;;;;;;7.20;6.60;;;6.30;99.90;;;;;;4971770;28;20528;-81
2022/12/18 05:01:15;;;;;;;6.30;5.70;;;6.20;99.90;;;;;;4973373;28;20027;-82
2022/12/18 05:03:41;;;;;;;6.25;5.65;;;6.20;99.90;;;;;;4974876;28;20105;-81
2022/12/18 05:06:07;;;;;;;6.53;5.93;;;6.30;99.90;;;;;;4974924;28;20497;-81
2022/12/18 05:08:33;;;;;;;6.07;5.57;;;6.20;99.90;;;;;;4970061;28;20478;-81
2022/12/18 05:11:11;;;;;;;6.38;5.78;;;6.30;99.90;;;;;;4955582;29;20027;-81
2022/12/18 05:13:37;;;;;;;6.68;6.05;;;6.30;99.90;;;;;;4954067;29;20122;-81
2022/12/18 05:16:04;;;;;;;6.65;6.05;;;6.30;99.90;;;;;;4954246;29;20031;-81
2022/12/18 05:18:30;;;;;;;6.97;6.28;;;6.20;99.90;;;;;;4971601;28;20109;-81
2022/12/18 05:20:56;;;;;;;7.15;6.53;;;6.30;99.90;;;;;;4973449;28;20062;-81
2022/12/18 05:23:23;;;;;;;6.63;6.03;;;6.30;99.90;;;;;;4974678;28;20086;-81
2022/12/18 05:26:00;;;;;;;6.60;6.00;;;6.30;99.90;;;;;;4973341;28;20113;-81
2022/12/18 05:28:28;;;;;;;6.50;6.00;;;6.30;99.90;;;;;;4967802;28;20043;-81
2022/12/18 05:30:56;;;;;;;6.38;5.68;;;6.30;99.90;;;;;;4954108;29;20027;-81
2022/12/18 05:33:24;;;;;;;7.32;6.32;;;6.30;99.90;;;;;;4955215;29;20055;-81
2022/12/18 05:35:55;;;;;;;5.97;5.50;;;6.30;99.90;;;;;;4958069;28;20027;-81
2022/12/18 05:38:21;;;;;;;6.25;5.68;;;6.30;99.90;;;;;;4974419;28;20081;-82
2022/12/18 05:40:49;;;;;;;5.35;4.90;;;6.30;99.90;;;;;;4974306;28;20074;-81
2022/12/18 05:43:15;;;;;;;5.70;5.25;;;6.30;99.90;;;;;;4973221;28;20030;-81
2022/12/18 05:45:41;;;;;;;5.20;4.80;;;6.30;99.90;;;;;;4973033;28;20046;-81
2022/12/18 05:48:08;;;;;;;5.25;4.85;;;6.30;99.90;;;;;;4974332;28;20385;-81
2022/12/18 05:50:36;;;;;;;5.65;5.15;;;6.30;99.90;;;;;;4974406;28;20393;-81
2022/12/18 05:53:03;;;;;;;5.28;4.88;;;6.30;99.90;;;;;;4971155;28;20023;-81
2022/12/18 05:55:29;;;;;;;5.00;4.53;;;6.30;99.90;;;;;;4955917;28;20032;-81
2022/12/18 05:57:54;;;;;;;5.53;5.07;;;6.30;99.90;;;;;;4974052;28;20062;-81
2022/12/18 06:00:20;;;;;;;5.50;5.10;;;6.30;99.90;;;;;;4972918;28;20027;-81
2022/12/18 06:02:49;;;;;;;5.60;5.10;;;6.30;99.90;;;;;;4974318;28;20499;-81
2022/12/18 06:05:15;;;;;;;8.48;4.80;;;6.30;99.90;;;;;;4972865;28;20030;-81
2022/12/18 06:07:40;;;;;;;5.70;5.20;;;6.30;99.90;;;;;;4972959;28;20532;-81
2022/12/18 06:10:07;;;;;;;6.82;6.18;;;6.30;99.90;;;;;;4974173;28;20023;-81
2022/12/18 06:12:33;;;;;;;7.60;6.90;;;6.20;99.90;;;;;;4972723;28;20035;-81
2022/12/18 06:15:00;;;;;;;7.70;7.00;;;6.20;99.90;;;;;;4968558;28;20449;-81
2022/12/18 06:17:32;;;;;;;11.60;9.20;;;6.20;99.90;;;;;;4960764;28;20551;-81
2022/12/18 06:19:58;;;;;;;10.23;9.15;;;6.20;99.90;;;;;;4963122;28;20109;-81
2022/12/18 06:22:24;;;;;;;11.05;9.95;;;6.10;99.90;;;;;;4962984;28;20019;-81
2022/12/18 06:24:50;;;;;;;12.88;11.02;;;6.20;99.90;;;;;;4961345;28;20030;-81
2022/12/18 06:27:16;;;;;;;11.82;10.60;;;6.20;99.90;;;;;;4968500;28;20028;-80
2022/12/18 06:29:41;;;;;;;12.18;10.85;;;6.20;99.90;;;;;;4973903;28;20389;-81
2022/12/18 06:32:07;;;;;;;13.70;12.30;;;6.20;99.90;;;;;;4973804;28;20031;-81
2022/12/18 06:34:33;;;;;;;15.43;12.98;;;6.20;99.90;;;;;;4972470;28;20393;-81
2022/12/18 06:36:59;;;;;;;16.33;12.73;;;6.20;99.90;;;;;;4973790;28;20027;-81
2022/12/18 06:39:27;;;;;;;13.13;10.05;;;6.20;99.90;;;;;;4972359;28;20388;-81
2022/12/18 06:41:52;;;;;;;10.98;9.63;;;6.20;99.90;;;;;;4972398;28;20186;-81
2022/12/18 06:44:18;;;;;;;12.65;10.68;;;6.20;99.90;;;;;;4973794;28;20529;-81
2022/12/18 06:46:44;;;;;;;11.93;10.32;;;6.20;99.90;;;;;;4973800;28;20030;-81
2022/12/18 06:49:09;;;;;;;12.50;10.32;;;6.20;99.90;;;;;;4973779;28;20031;-81
2022/12/18 06:51:35;;;;;;;11.40;10.05;;;6.20;99.90;;;;;;4962712;28;20170;-81
2022/12/18 06:54:01;;;;;;;11.30;10.15;;;6.20;99.90;;;;;;4954334;29;20039;-81
2022/12/18 06:56:27;;;;;;;15.13;10.80;;;6.20;99.90;;;;;;4954073;29;20414;-81
2022/12/18 06:58:53;;;;;;;13.10;10.63;;;6.20;99.90;;;;;;4954248;29;20023;-81
2022/12/18 07:01:19;;;;;;;13.32;10.85;;;6.20;99.90;;;;;;4954381;29;20027;-81
2022/12/18 07:03:45;;;;;;;13.73;11.55;;;6.20;99.90;;;;;;4963270;28;20070;-81
2022/12/18 07:06:19;;;;;;;14.73;11.77;;;6.20;99.90;;;;;;4975969;28;20081;-81
2022/12/18 07:08:46;;;;;;;14.15;11.55;;;6.20;99.90;;;;;;4961348;28;20027;-82
2022/12/18 07:11:12;;;;;;;11.40;9.35;;;6.20;99.90;;;;;;4957775;29;20055;-81
2022/12/18 07:13:38;;;;;;;11.88;10.38;;;6.20;99.90;;;;;;4962743;28;20065;-81
2022/12/18 07:16:06;;;;;;;10.05;9.05;;;6.20;99.90;;;;;;4977110;28;20121;-81
2022/12/18 07:18:32;;;;;;;10.52;9.35;;;6.20;99.90;;;;;;4976899;28;20035;-81
2022/12/18 07:20:57;;;;;;;11.15;9.73;;;6.20;99.90;;;;;;4970736;28;20371;-81
2022/12/18 07:23:23;;;;;;;18.42;13.27;;;6.20;99.90;;;;;;4957551;29;20031;-81
2022/12/18 07:25:49;;;;;;;16.00;11.57;;;6.20;99.90;;;;;;4959944;28;20170;-81
2022/12/18 07:28:14;;;;;;;9.73;8.60;;;6.20;99.90;;;;;;4975431;28;20027;-81
2022/12/18 07:30:40;;;;;;;9.98;8.05;;;6.20;99.90;;;;;;4975524;28;20027;-81
2022/12/18 07:33:06;;;;;;;8.18;7.47;;;6.20;99.90;;;;;;4975525;28;20066;-81
2022/12/18 07:35:33;;;;;;;8.45;7.47;;;6.20;99.90;;;;;;4976655;28;20105;-81
2022/12/18 07:37:58;;;;;;;7.65;6.95;;;6.20;99.90;;;;;;4976343;28;20490;-81
2022/12/18 07:40:24;;;;;;;7.50;6.10;;;6.20;99.90;;;;;;4976521;28;20054;-81
2022/12/18 07:42:50;;;;;;;5.65;5.10;;;6.20;99.90;;;;;;4963350;28;20031;-81
2022/12/18 07:45:15;;;;;;;8.15;7.03;;;6.20;99.90;;;;;;4967327;28;20078;-81
2022/12/18 07:47:41;;;;;;;6.72;6.13;;;6.20;99.90;;;;;;4968146;28;20030;-81
2022/12/18 07:50:07;;;;;;;7.75;6.95;;;6.20;99.90;;;;;;4962117;28;20413;-81
2022/12/18 07:52:33;;;;;;;7.68;6.88;;;6.20;99.90;;;;;;4965955;28;20031;-81
2022/12/18 07:54:59;;;;;;;7.28;6.47;;;6.20;99.90;;;;;;4966024;28;20389;-81
2022/12/18 07:57:24;;;;;;;7.45;6.50;;;6.20;99.90;;;;;;4981685;28;20078;-81
2022/12/18 07:59:50;;;;;;;7.13;6.43;;;6.30;99.90;;;;;;4982510;28;20088;-81
2022/12/18 08:02:16;;;;;;;8.00;7.30;;;6.30;99.90;;;;;;4976861;28;20035;-81
2022/12/18 08:04:42;;;;;;;6.25;5.75;;;6.30;99.90;;;;;;4980898;28;20033;-81
2022/12/18 08:07:07;;;;;;;8.25;6.82;;;6.30;99.90;;;;;;4963912;28;20026;-81
2022/12/18 08:09:33;;;;;;;10.30;7.57;;;6.30;99.90;;;;;;4956627;29;20082;-81
2022/12/18 08:11:59;;;;;;;10.65;8.93;;;6.30;99.90;;;;;;4955239;29;20023;-81
2022/12/18 08:14:24;;;;;;;13.05;11.25;;;6.40;99.90;;;;;;4955217;28;20030;-81
2022/12/18 08:16:50;;;;;;;15.95;12.05;;;6.40;99.90;;;;;;4973482;28;20493;-82
2022/12/18 08:19:16;;;;;;;21.35;15.98;;;6.40;99.90;;;;;;4975843;28;20023;-81
2022/12/18 08:21:42;;;;;;;18.70;13.32;;;6.40;99.90;;;;;;4974619;28;20082;-81
2022/12/18 08:24:09;;;;;;;13.40;10.90;;;6.40;99.90;;;;;;4975760;28;20038;-81
2022/12/18 08:26:35;;;;;;;9.45;8.45;;;6.40;99.90;;;;;;4975659;28;20059;-81
2022/12/18 08:29:01;;;;;;;7.82;7.03;;;6.50;99.90;;;;;;4974264;28;20508;-81
2022/12/18 08:31:28;;;;;;;9.10;7.00;;;6.50;99.90;;;;;;4975639;28;20045;-81
2022/12/18 08:33:54;;;;;;;9.60;6.93;;;6.50;99.90;;;;;;4974382;28;20397;-81
2022/12/18 08:36:21;;;;;;;8.52;7.63;;;6.60;99.90;;;;;;4975553;28;20030;-81
2022/12/18 08:38:47;;;;;;;11.18;8.30;;;6.60;99.90;;;;;;4991991;28;20034;-81
2022/12/18 08:41:14;;;;;;;13.80;9.55;;;6.60;99.90;;;;;;4993651;28;20077;-81
2022/12/18 08:46:26;;;;;;;13.73;8.55;;;6.60;99.90;;;;;;4974069;28;20408;-81
2022/12/18 08:48:54;;;;;;;11.48;9.30;;;6.70;99.90;;;;;;4975413;28;20143;-76
2022/12/18 08:51:20;;;;;;;10.18;9.18;;;6.60;99.90;;;;;;4975078;28;20400;-76
2022/12/18 08:53:46;;;;;;;12.90;10.25;;;6.70;99.90;;;;;;4955672;29;20094;-76
2022/12/18 08:56:13;;;;;;;11.90;10.32;;;6.70;99.90;;;;;;4962484;28;20113;-76
2022/12/18 08:58:39;;;;;;;13.23;11.25;;;6.80;99.90;;;;;;4989119;28;20042;-76
2022/12/18 09:01:08;;;;;;;14.32;11.43;;;6.80;99.90;;;;;;4974967;28;20027;-76
2022/12/18 09:03:34;;;;;;;12.40;11.10;;;6.80;99.90;;;;;;4973609;28;20019;-76
2022/12/18 09:06:00;;;;;;;13.48;11.40;;;6.80;99.90;;;;;;4974933;28;20431;-76
2022/12/18 09:08:26;;;;;;;12.85;10.90;;;6.80;99.90;;;;;;4974772;28;20022;-76
2022/12/18 09:10:52;;;;;;;12.93;11.45;;;6.90;99.90;;;;;;4978822;28;20030;-76
2022/12/18 09:13:18;;;;;;;11.27;10.05;;;6.90;99.90;;;;;;4972870;28;20152;-76
2022/12/18 09:15:50;;;;;;;13.48;11.98;;;6.90;99.90;;;;;;4991769;28;20030;-76
2022/12/18 09:18:17;;;;;;;15.10;11.90;;;6.90;99.90;;;;;;4979047;28;20489;-76
2022/12/18 09:20:44;;;;;;;11.52;10.32;;;6.90;99.90;;;;;;4975106;28;20022;-76
2022/12/18 09:23:09;;;;;;;14.32;11.70;;;6.90;99.90;;;;;;4992652;28;20113;-76
2022/12/18 09:25:36;;;;;;;13.88;11.50;;;6.90;99.90;;;;;;4992043;28;20109;-76
2022/12/18 09:28:04;;;;;;;14.15;11.20;;;6.90;99.90;;;;;;4972724;28;20022;-76
2022/12/18 09:30:30;;;;;;;12.00;10.80;;;6.90;99.90;;;;;;4974012;28;20018;-77
2022/12/18 09:32:56;;;;;;;11.93;10.48;;;6.90;99.90;;;;;;4989804;28;20034;-76
2022/12/18 09:35:21;;;;;;;12.40;11.10;;;6.80;99.90;;;;;;4974420;28;20078;-76
2022/12/18 09:37:47;;;;;;;14.10;11.48;;;6.80;99.90;;;;;;4974281;28;20369;-76
2022/12/18 09:40:16;;;;;;;12.65;11.35;;;6.80;99.90;;;;;;4973061;28;20027;-76
2022/12/18 09:42:47;;;;;;;13.30;11.75;;;6.80;99.90;;;;;;4974496;28;20026;-76
2022/12/18 09:45:14;;;;;;;17.33;13.68;;;6.80;99.90;;;;;;4972990;28;20023;-76
2022/12/18 09:47:43;;;;;;;14.20;12.30;;;6.80;99.90;;;;;;4960820;28;20494;-76
2022/12/18 09:50:24;;;;;;;13.90;12.20;;;6.80;99.90;;;;;;4966183;28;20027;-77
2022/12/18 09:52:53;;;;;;;16.63;12.88;;;6.80;99.90;;;;;;4953782;29;20039;-76
2022/12/18 09:55:27;;;;;;;13.52;12.13;;;6.80;99.90;;;;;;4954979;28;20063;-76
2022/12/18 09:58:16;;;;;;;17.40;12.80;;;6.90;99.90;;;;;;4963267;28;20047;-76
2022/12/18 10:00:42;;;;;;;13.65;11.90;;;6.90;99.90;;;;;;4973323;28;20042;-76
2022/12/18 10:03:14;;;;;;;14.65;13.00;;;6.90;99.90;;;;;;4979929;28;20034;-76
2022/12/18 10:05:49;;;;;;;14.85;12.93;;;6.90;99.90;;;;;;4973790;28;20030;-76
2022/12/18 10:08:33;;;;;;;14.50;12.65;;;7.00;99.90;;;;;;4972436;28;20053;-76
2022/12/18 10:11:22;;;;;;;16.13;13.05;;;7.00;99.90;;;;;;4954941;29;20401;-76
2022/12/18 10:14:01;;;;;;;15.07;13.48;;;7.00;99.90;;;;;;4958859;28;20027;-76
2022/12/18 10:16:59;;;;;;;15.25;13.65;;;6.90;99.90;;;;;;4955370;28;20046;-76
2022/12/18 10:19:59;;;;;;;15.32;13.35;;;7.00;99.90;;;;;;4951758;29;20047;-76
2022/12/18 10:23:02;;;;;;;16.40;12.98;;;7.00;99.90;;;;;;4898505;28;20035;-76
2022/12/18 10:25:43;;;;;;;18.15;13.75;;;6.90;99.90;;;;;;4966549;28;20096;-77
2022/12/18 10:28:17;;;;;;;15.98;13.43;;;6.90;99.90;;;;;;4972151;28;20039;-76
2022/12/18 10:30:43;;;;;;;18.13;15.25;;;6.90;99.90;;;;;;4973564;28;20023;-76
2022/12/18 10:33:20;;;;;;;18.23;14.48;;;7.00;99.90;;;;;;4973290;28;20030;-76
2022/12/18 10:35:49;;;;;;;20.75;14.07;;;7.10;99.90;;;;;;4973467;28;20031;-76
2022/12/18 10:38:19;;;;;;;16.13;13.73;;;7.10;99.90;;;;;;4973280;28;20034;-76
2022/12/18 10:40:56;;;;;;;17.25;13.52;;;7.10;99.90;;;;;;4975783;28;20042;-76
2022/12/18 10:43:43;;;;;;;18.23;14.40;;;7.10;99.90;;;;;;4964841;28;20122;-76
2022/12/18 10:46:09;;;;;;;16.27;14.23;;;7.20;99.90;;;;;;4976350;28;20042;-76
2022/12/18 10:48:47;;;;;;;17.88;15.50;;;7.20;99.90;;;;;;4974804;28;20551;-76
2022/12/18 10:51:27;;;;;;;20.13;14.82;;;7.20;99.90;;;;;;4965377;28;20046;-76
2022/12/18 10:54:06;;;;;;;23.27;15.38;;;7.20;99.90;;;;;;4975227;28;20030;-76
2022/12/18 10:56:35;;;;;;;19.13;14.80;;;7.20;99.90;;;;;;4974222;28;20022;-76
2022/12/18 10:59:05;;;;;;;19.52;15.05;;;7.30;99.90;;;;;;4968446;28;20050;-76
2022/12/18 11:01:50;;;;;;;21.23;15.43;;;7.30;99.90;;;;;;4975282;28;20030;-76
2022/12/18 11:04:19;;;;;;;18.33;14.93;;;7.30;99.90;;;;;;4964671;28;20019;-76
2022/12/18 11:06:56;;;;;;;19.60;15.50;;;7.40;99.90;;;;;;4977188;28;20022;-82
2022/12/18 11:09:31;;;;;;;18.73;15.48;;;7.40;99.90;;;;;;4959433;28;20036;-82
2022/12/18 11:12:00;;;;;;;21.70;16.35;;;7.40;99.90;;;;;;4963226;28;20030;-82
2022/12/18 11:14:59;;;;;;;22.40;15.40;;;7.50;99.90;;;;;;4973069;28;20031;-82
2022/12/18 11:17:34;;;;;;;16.48;14.57;;;7.50;99.90;;;;;;4953540;28;20042;-82
2022/12/18 11:20:03;;;;;;;18.23;15.07;;;7.50;99.90;;;;;;4957421;29;20094;-82
2022/12/18 11:22:31;;;;;;;19.45;15.98;;;7.40;99.90;;;;;;4974488;28;20077;-82
2022/12/18 11:25:15;;;;;;;17.45;14.63;;;7.40;99.90;;;;;;4968424;28;20038;-81
2022/12/18 11:27:52;;;;;;;18.73;15.60;;;7.40;99.90;;;;;;4974778;28;20066;-82
2022/12/18 11:30:22;;;;;;;18.15;14.30;;;7.50;99.90;;;;;;4975454;28;20034;-82
2022/12/18 11:33:14;;;;;;;17.48;14.07;;;7.50;99.90;;;;;;4962054;28;20027;-82
2022/12/18 11:35:46;;;;;;;16.52;14.77;;;7.40;99.90;;;;;;4962202;28;20504;-81
2022/12/18 11:38:22;;;;;;;17.52;15.32;;;7.40;99.90;;;;;;4975286;28;20088;-82
2022/12/18 11:40:54;;;;;;;18.70;15.70;;;7.40;99.90;;;;;;4976611;28;20027;-82
2022/12/18 11:43:32;;;;;;;19.85;16.02;;;7.50;99.90;;;;;;4975141;28;20427;-82
2022/12/18 11:46:10;;;;;;;20.88;15.75;;;7.50;99.90;;;;;;4962661;28;20020;-82
2022/12/18 11:48:47;;;;;;;21.25;15.00;;;7.50;99.90;;;;;;4974231;28;20031;-82
2022/12/18 11:51:22;;;;;;;20.52;16.25;;;7.60;99.90;;;;;;4976036;28;20042;-82
2022/12/18 11:53:48;;;;;;;20.10;15.82;;;7.60;99.90;;;;;;4976510;28;20077;-82
2022/12/18 11:56:29;;;;;;;20.35;16.88;;;7.70;99.90;;;;;;4974905;28;20481;-82
2022/12/18 11:59:19;;;;;;;20.83;16.15;;;7.70;99.90;;;;;;4974882;28;20476;-82
2022/12/18 12:01:52;;;;;;;24.08;16.70;;;7.60;99.90;;;;;;4974995;28;20074;-82
2022/12/18 12:04:35;;;;;;;36.65;24.33;;;7.70;99.90;;;;;;4975024;28;20019;-82
2022/12/18 12:07:16;;;;;;;20.85;16.80;;;7.60;99.90;;;;;;4976215;28;20175;-82
2022/12/18 12:10:11;;;;;;;21.52;16.98;;;7.70;99.90;;;;;;4976259;28;20027;-82
2022/12/18 12:13:16;;;;;;;22.23;17.92;;;7.70;99.90;;;;;;4975813;28;20037;-82
2022/12/18 12:15:47;;;;;;;22.20;16.63;;;7.70;99.90;;;;;;4975898;28;20041;-82
2022/12/18 12:18:50;;;;;;;21.38;15.52;;;7.80;99.90;;;;;;4974652;28;20194;-82
2022/12/18 12:21:46;;;;;;;18.90;15.65;;;7.80;99.90;;;;;;4975946;28;20023;-82
2022/12/18 12:24:30;;;;;;;19.58;15.95;;;7.90;99.90;;;;;;4967685;28;20036;-82
2022/12/18 12:27:10;;;;;;;17.63;15.05;;;7.90;99.90;;;;;;4975416;28;20105;-82
2022/12/18 12:29:42;;;;;;;18.08;16.10;;;7.90;99.90;;;;;;4975478;28;20089;-82
2022/12/18 12:32:26;;;;;;;20.52;15.90;;;7.90;99.90;;;;;;4974358;28;20496;-82
2022/12/18 12:35:21;;;;;;;19.20;16.13;;;8.00;99.90;;;;;;4974298;28;20026;-82
2022/12/18 12:38:03;;;;;;;19.00;16.02;;;7.90;99.90;;;;;;4971599;28;20043;-82
2022/12/18 12:40:41;;;;;;;17.83;15.10;;;7.90;99.90;;;;;;4974319;28;20023;-82
2022/12/18 12:43:27;;;;;;;20.40;15.82;;;8.00;99.90;;;;;;4975463;28;20481;-82
2022/12/18 12:46:05;;;;;;;19.02;15.13;;;8.00;99.90;;;;;;4974235;28;20034;-82
2022/12/18 12:48:55;;;;;;;18.20;15.13;;;8.00;99.90;;;;;;4957885;28;20027;-82
2022/12/18 12:51:40;;;;;;;17.92;15.38;;;7.90;99.90;;;;;;4969367;28;20515;-82
2022/12/18 12:54:18;;;;;;;18.73;13.95;;;8.00;99.90;;;;;;4967986;28;20558;-82
2022/12/18 12:56:50;;;;;;;16.67;14.55;;;8.00;99.90;;;;;;4971666;28;20051;-82
2022/12/18 12:59:49;;;;;;;18.20;14.88;;;8.00;99.90;;;;;;4965246;28;20034;-82
2022/12/18 13:02:37;;;;;;;17.77;13.45;;;8.00;99.90;;;;;;4973192;28;20058;-82
2022/12/18 13:05:16;;;;;;;15.90;13.93;;;8.00;99.90;;;;;;4973773;28;20019;-82
2022/12/18 13:08:10;;;;;;;15.50;12.98;;;8.00;99.90;;;;;;4974947;28;20019;-82
2022/12/18 13:10:37;;;;;;;21.38;15.23;;;8.00;99.90;;;;;;4949854;28;20074;-82
2022/12/18 13:13:07;;;;;;;13.85;11.73;;;8.10;99.90;;;;;;4968240;28;20031;-82